Time;durP1;ratioP1;P1;durP2;ratioP2;P2;SDS_P1;SDS_P2;PMS_P1;PMS_P2;Temp;Humidity;BMP_temperature;BMP_pressure;BME280_temperature;BME280_humidity;BME280_pressure;Samples;Min_cycle;Max_cycle;Signal;HPM_P1;HPM_P2
2023/07/24 00:11:24;;;;;;;9.43;6.10;;;;;;;23.71;100.00;100047.63;30862836;28;20050;-73
2023/07/24 00:26:26;;;;;;;9.60;5.65;;;;;;;23.80;100.00;100061.19;30866629;28;20134;-74
2023/07/24 00:41:29;;;;;;;14.23;6.57;;;;;;;23.31;100.00;100052.50;30863081;28;20110;-74
2023/07/24 00:56:32;;;;;;;13.45;9.02;;;;;;;23.54;100.00;100058.00;30856315;28;20466;-74
2023/07/24 01:11:42;;;;;;;14.77;8.53;;;;;;;23.52;100.00;100066.03;30862266;28;20058;-72
2023/07/24 01:26:44;;;;;;;13.73;8.25;;;;;;;23.41;100.00;100067.56;30857106;28;20109;-74
2023/07/24 01:41:47;;;;;;;13.02;7.95;;;;;;;23.27;100.00;100079.69;30857259;28;20096;-74
2023/07/24 01:56:49;;;;;;;12.38;8.05;;;;;;;23.28;100.00;100074.91;30855179;28;20138;-73
2023/07/24 02:11:51;;;;;;;15.88;8.10;;;;;;;23.10;100.00;100081.75;30869109;28;20058;-73
2023/07/24 02:26:53;;;;;;;14.65;7.28;;;;;;;23.35;100.00;100102.84;30878795;28;20133;-74
2023/07/24 02:41:55;;;;;;;12.55;7.32;;;;;;;23.19;100.00;100103.63;30870783;28;20142;-74
2023/07/24 02:56:58;;;;;;;16.67;7.57;;;;;;;23.03;100.00;100107.91;30873594;28;20131;-74
2023/07/24 03:11:59;;;;;;;15.35;8.32;;;;;;;23.28;100.00;100113.69;30873457;28;20137;-73
2023/07/24 03:27:02;;;;;;;19.65;10.15;;;;;;;23.52;100.00;100121.44;30863845;28;20543;-74
2023/07/24 03:42:04;;;;;;;19.15;10.75;;;;;;;24.20;100.00;100136.63;30868600;28;20137;-73
2023/07/24 03:57:06;;;;;;;15.45;9.45;;;;;;;24.58;100.00;100152.31;30864680;28;20138;-75
2023/07/24 04:12:08;;;;;;;16.35;9.98;;;;;;;25.14;98.55;100163.03;30861349;28;20405;-74
2023/07/24 04:27:10;;;;;;;18.88;9.35;;;;;;;25.64;94.72;100172.97;30855993;28;20101;-74
2023/07/24 04:42:12;;;;;;;18.98;10.65;;;;;;;26.30;91.33;100165.16;30856995;28;20051;-74
2023/07/24 04:57:14;;;;;;;15.43;9.13;;;;;;;27.11;88.10;100165.75;30858799;28;20242;-74
2023/07/24 05:12:16;;;;;;;36.08;16.73;;;;;;;27.56;85.37;100164.97;30854598;28;20066;-73
2023/07/24 05:27:18;;;;;;;11.83;7.37;;;;;;;28.42;77.02;100175.47;30855269;28;20053;-74
2023/07/24 05:42:20;;;;;;;9.97;5.97;;;;;;;29.11;71.62;100165.75;30862599;28;20138;-75
2023/07/24 05:57:22;;;;;;;8.00;5.33;;;;;;;29.46;69.32;100156.75;30878028;28;20385;-75
2023/07/24 06:12:24;;;;;;;11.40;5.53;;;;;;;30.12;64.82;100153.41;30877642;28;20408;-75
2023/07/24 06:27:26;;;;;;;;;;;;;;;30.56;58.70;100155.44;30875452;28;20327;-73
2023/07/24 06:42:28;;;;;;;6.70;3.83;;;;;;;30.73;56.23;100159.22;30875545;28;19957;-73
2023/07/24 06:57:30;;;;;;;6.07;4.00;;;;;;;31.27;54.44;100154.41;30874492;28;20073;-72
2023/07/24 07:12:34;;;;;;;7.00;4.60;;;;;;;31.48;52.91;100151.41;30869277;28;20061;-73
2023/07/24 07:27:36;;;;;;;4.28;3.35;;;;;;;32.01;49.59;100156.91;30866739;28;20055;-73
2023/07/24 07:42:38;;;;;;;4.18;3.00;;;;;;;32.28;48.51;100157.19;30866227;28;20066;-75
2023/07/24 07:57:41;;;;;;;5.03;3.58;;;;;;;33.11;45.42;100152.34;30864044;28;20054;-74
2023/07/24 08:12:43;;;;;;;5.03;3.70;;;;;;;33.85;42.86;100131.78;30862447;28;20496;-73
2023/07/24 08:27:45;;;;;;;6.78;3.90;;;;;;;34.15;41.94;100144.75;30857927;28;20142;-74
2023/07/24 08:43:06;;;;;;;4.03;3.17;;;;;;;33.17;43.57;100130.38;30858138;28;20051;-74
2023/07/24 08:58:09;;;;;;;9.32;6.57;;;;;;;33.62;42.30;100134.84;30856737;28;20118;-74
2023/07/24 09:13:12;;;;;;;4.05;3.55;;;;;;;34.60;41.04;100120.84;30858146;28;20051;-76
2023/07/24 09:28:17;;;;;;;10.13;5.05;;;;;;;34.47;40.80;100107.16;30856987;28;20083;-74
2023/07/24 09:43:22;;;;;;;7.72;4.75;;;;;;;34.48;40.19;100097.38;30857027;28;20509;-75
2023/07/24 09:58:43;;;;;;;6.60;2.67;;;;;;;34.85;38.80;100089.66;30854005;28;20039;-73
2023/07/24 10:13:46;;;;;;;8.02;4.22;;;;;;;36.02;37.32;100075.03;30855354;28;20142;-73
2023/07/24 10:28:48;;;;;;;6.43;4.38;;;;;;;35.22;38.69;100064.94;30855742;28;20588;-74
2023/07/24 10:43:52;;;;;;;7.53;4.40;;;;;;;36.54;36.83;100044.09;30875854;28;20082;-74
2023/07/24 10:58:54;;;;;;;5.93;4.80;;;;;;;36.74;36.62;100044.00;30877587;28;20062;-72
2023/07/24 11:13:56;;;;;;;5.70;4.65;;;;;;;37.53;34.99;100035.84;30867585;28;20050;-74
2023/07/24 11:28:58;;;;;;;10.48;4.93;;;;;;;36.92;34.89;100022.59;30869403;28;20093;-74
2023/07/24 11:44:00;;;;;;;5.20;4.13;;;;;;;35.05;35.26;100019.94;30864047;28;20394;-73
2023/07/24 11:59:13;;;;;;;4.45;3.25;;;;;;;34.28;36.65;100011.22;30868543;28;20081;-73
2023/07/24 12:14:16;;;;;;;15.50;3.13;;;;;;;33.10;38.62;100001.81;30859824;28;20070;-72
2023/07/24 12:29:18;;;;;;;7.05;4.50;;;;;;;33.47;38.66;99986.63;30859361;28;20146;-73
2023/07/24 12:44:20;;;;;;;8.18;4.15;;;;;;;32.97;38.87;99982.47;30858604;28;20448;-73
2023/07/24 12:59:22;;;;;;;6.22;4.15;;;;;;;32.44;39.90;99961.22;30857787;28;20141;-72
2023/07/24 13:14:24;;;;;;;9.18;4.07;;;;;;;32.51;40.17;99961.16;30856369;28;20138;-73
2023/07/24 13:29:26;;;;;;;4.07;3.30;;;;;;;32.53;39.50;99949.34;30855154;28;20536;-73
2023/07/24 13:44:28;;;;;;;6.18;3.42;;;;;;;32.56;40.09;99927.78;30854343;28;20054;-75
2023/07/24 13:59:30;;;;;;;3.47;2.88;;;;;;;32.47;40.23;99926.34;30852916;28;20054;-73
2023/07/24 14:14:32;;;;;;;7.03;3.88;;;;;;;32.33;40.18;99930.81;30875447;28;20046;-73
2023/07/24 14:29:34;;;;;;;5.38;2.75;;;;;;;31.97;40.85;99920.00;30874802;28;20473;-73
2023/07/24 14:44:36;;;;;;;8.43;3.55;;;;;;;31.99;41.41;99934.94;30869970;28;20519;-74
2023/07/24 14:59:38;;;;;;;5.18;3.92;;;;;;;31.92;41.37;99930.13;30872157;28;20081;-73
2023/07/24 15:14:40;;;;;;;5.40;3.80;;;;;;;31.82;41.77;99915.25;30869822;28;20556;-76
2023/07/24 15:29:42;;;;;;;8.60;4.30;;;;;;;31.51;41.54;99915.41;30867156;28;20086;-73
2023/07/24 15:44:44;;;;;;;6.35;4.03;;;;;;;31.29;42.46;99910.66;30863539;28;20051;-75
2023/07/24 15:59:46;;;;;;;11.05;3.70;;;;;;;31.35;42.46;99896.41;30869411;28;20117;-73
2023/07/24 16:14:48;;;;;;;7.18;3.92;;;;;;;31.28;42.63;99902.78;30866124;28;20137;-73
2023/07/24 16:29:50;;;;;;;5.75;4.18;;;;;;;30.94;42.69;99904.03;30862942;28;20142;-75
2023/07/24 16:44:52;;;;;;;5.88;3.50;;;;;;;30.73;42.79;99912.66;30861600;28;20131;-74
2023/07/24 16:59:57;;;;;;;8.98;3.40;;;;;;;30.41;43.50;99904.09;30857380;28;20061;-72
2023/07/24 17:14:59;;;;;;;6.22;4.65;;;;;;;30.25;43.73;99902.59;30857229;28;20408;-74
2023/07/24 17:30:01;;;;;;;4.00;3.55;;;;;;;30.16;44.29;99915.13;30854520;28;20142;-75
2023/07/24 17:45:04;;;;;;;9.48;6.75;;;;;;;29.92;44.95;99912.84;30881115;28;20141;-75
2023/07/24 18:00:07;;;;;;;18.02;9.63;;;;;;;29.63;45.90;99915.03;30885524;28;20109;-75
2023/07/24 18:15:09;;;;;;;4.72;3.50;;;;;;;29.57;45.20;99920.78;30882634;28;20051;-75
2023/07/24 18:30:11;;;;;;;5.40;3.50;;;;;;;29.46;44.67;99927.47;30875878;28;20141;-75
2023/07/24 18:45:14;;;;;;;5.55;4.07;;;;;;;29.29;44.41;99935.56;30874243;28;20086;-73
2023/07/24 19:00:17;;;;;;;10.02;4.78;;;;;;;29.27;44.36;99938.19;30877049;28;20133;-75
2023/07/24 19:15:19;;;;;;;13.50;5.55;;;;;;;29.07;44.91;99942.53;30865947;28;20054;-73
2023/07/24 19:30:21;;;;;;;10.82;5.70;;;;;;;29.05;45.31;99944.41;30869066;28;20600;-75
2023/07/24 19:45:23;;;;;;;;;;;;;;;29.07;45.96;99948.13;30865285;28;20074;-73
2023/07/24 20:00:25;;;;;;;10.68;5.88;;;;;;;28.52;46.70;99936.41;30864878;28;20001;-74
2023/07/24 20:15:30;;;;;;;10.40;7.30;;;;;;;28.55;47.00;99949.28;30862027;28;20078;-73
2023/07/24 20:30:32;;;;;;;11.67;7.67;;;;;;;28.44;47.41;99944.72;30861203;28;20093;-74
2023/07/24 20:45:34;;;;;;;9.57;6.20;;;;;;;28.27;48.13;99924.09;30857090;28;20142;-74
2023/07/24 21:00:36;;;;;;;8.87;5.00;;;;;;;28.19;48.27;99929.59;30861690;28;20117;-76
2023/07/24 21:15:38;;;;;;;9.40;5.57;;;;;;;27.75;49.86;99936.97;30858414;28;20043;-75
2023/07/24 21:30:40;;;;;;;8.80;5.83;;;;;;;27.46;50.89;99920.09;30863248;28;20533;-75
2023/07/24 21:45:42;;;;;;;10.33;5.90;;;;;;;27.24;52.46;99901.06;30860288;28;20087;-74
2023/07/24 22:00:44;;;;;;;7.63;6.17;;;;;;;27.00;54.20;99904.09;30857869;28;20138;-74
2023/07/24 22:15:47;;;;;;;17.00;5.37;;;;;;;26.89;53.80;99904.31;30855894;28;20051;-74
2023/07/24 22:30:48;;;;;;;7.63;5.57;;;;;;;26.92;54.25;99903.22;30862260;28;20096;-74
2023/07/24 22:45:51;;;;;;;7.37;5.00;;;;;;;26.87;54.20;99895.72;30875226;28;20086;-74
2023/07/24 23:00:53;;;;;;;7.50;5.37;;;;;;;26.72;55.24;99894.22;30874930;28;20406;-74
2023/07/24 23:15:55;;;;;;;5.28;4.70;;;;;;;26.56;56.24;99892.50;30872244;28;20618;-74
2023/07/24 23:30:57;;;;;;;9.60;5.57;;;;;;;26.43;57.04;99892.50;30871162;28;20059;-74
2023/07/24 23:45:59;;;;;;;8.40;4.90;;;;;;;26.16;59.15;99881.28;30869682;28;20397;-75
